createdAt,value
2019-01-11T00:01:18.827Z,5.90
2019-01-11T00:03:48.337Z,7.23
2019-01-11T00:06:17.804Z,8.87
2019-01-11T00:08:47.311Z,7.40
2019-01-11T00:11:16.829Z,7.47
2019-01-11T00:13:46.370Z,8.30
2019-01-11T00:16:15.837Z,6.90
2019-01-11T00:19:07.247Z,8.70
2019-01-11T00:21:56.560Z,7.33
2019-01-11T00:24:26.030Z,6.50
2019-01-11T00:26:55.539Z,9.53
2019-01-11T00:29:25.027Z,8.05
2019-01-11T00:31:54.790Z,7.83
2019-01-11T00:34:24.294Z,8.50
2019-01-11T00:36:53.801Z,7.67
2019-01-11T00:39:23.519Z,7.30
2019-01-11T00:41:53.015Z,7.77
2019-01-11T00:44:22.488Z,6.73
2019-01-11T00:46:51.998Z,9.23
2019-01-11T00:49:21.497Z,7.10
2019-01-11T00:51:51.259Z,7.10
2019-01-11T00:54:39.860Z,8.43
2019-01-11T00:57:09.356Z,7.83
2019-01-11T00:59:38.838Z,9.78
2019-01-11T01:02:08.406Z,7.63
2019-01-11T01:04:37.978Z,8.08
2019-01-11T01:07:07.480Z,8.43
2019-01-11T01:09:36.986Z,9.50
2019-01-11T01:12:07.141Z,7.77
2019-01-11T01:14:36.888Z,10.10
2019-01-11T01:17:06.537Z,8.77
2019-01-11T01:19:36.008Z,7.57
2019-01-11T01:22:05.591Z,6.70
2019-01-11T01:24:35.089Z,8.25
2019-01-11T01:27:04.663Z,7.23
2019-01-11T01:29:53.243Z,7.83
2019-01-11T01:32:41.776Z,8.57
2019-01-11T01:35:11.326Z,7.93
2019-01-11T01:37:41.099Z,8.07
2019-01-11T01:40:11.568Z,7.80
2019-01-11T01:42:42.855Z,7.20
2019-01-11T01:48:33.621Z,7.58
2019-01-11T01:51:03.087Z,7.15
2019-01-11T01:53:32.583Z,7.50
2019-01-11T01:56:02.054Z,8.97
2019-01-11T01:58:31.540Z,6.92
2019-01-11T02:01:20.110Z,7.33
2019-01-11T02:03:49.611Z,6.83
2019-01-11T02:06:19.090Z,7.70
2019-01-11T02:08:48.584Z,7.30
2019-01-11T02:11:18.059Z,7.40
2019-01-11T02:13:47.553Z,7.00
2019-01-11T02:16:17.030Z,5.62
2019-01-11T02:18:46.596Z,6.77
2019-01-11T02:21:16.107Z,7.72
2019-01-11T02:26:26.355Z,6.13
2019-01-11T02:28:55.839Z,7.60
2019-01-11T02:31:25.305Z,7.03
2019-01-11T02:33:54.806Z,8.30
2019-01-11T02:36:24.340Z,7.73
2019-01-11T02:38:54.152Z,5.87
2019-01-11T02:41:24.175Z,7.40
2019-01-11T02:43:54.167Z,6.03
2019-01-11T02:46:24.097Z,6.83
2019-01-11T02:48:54.002Z,7.58
2019-01-11T02:51:42.570Z,6.77
2019-01-11T02:54:18.010Z,6.95
2019-01-11T02:56:47.476Z,5.80
2019-01-11T02:59:36.282Z,8.75
2019-01-11T03:04:54.294Z,7.47
2019-01-11T03:07:24.153Z,8.03
2019-01-11T03:10:34.054Z,7.35
2019-01-11T03:13:03.688Z,6.90
2019-01-11T03:15:33.264Z,6.78
2019-01-11T03:18:02.751Z,8.33
2019-01-11T03:20:32.319Z,7.73
2019-01-11T03:23:02.183Z,7.20
2019-01-11T03:25:31.681Z,5.27
2019-01-11T03:28:01.139Z,6.28
2019-01-11T03:30:30.631Z,7.27
2019-01-11T03:33:00.109Z,7.37
2019-01-11T03:35:29.592Z,7.00
2019-01-11T03:37:59.058Z,6.87
2019-01-11T03:40:47.850Z,5.97
2019-01-11T03:43:17.535Z,7.77
2019-01-11T03:45:53.960Z,6.83
2019-01-11T03:48:23.432Z,7.23
2019-01-11T03:50:52.918Z,6.87
2019-01-11T03:53:22.404Z,7.63
2019-01-11T03:55:51.876Z,6.80
2019-01-11T03:58:21.404Z,7.67
2019-01-11T04:00:50.869Z,7.47
2019-01-11T04:03:20.454Z,7.33
2019-01-11T04:05:49.923Z,7.00
2019-01-11T04:08:19.482Z,6.23
2019-01-11T04:10:49.012Z,6.80
2019-01-11T04:13:18.570Z,6.87
2019-01-11T04:15:48.031Z,7.03
2019-01-11T04:18:36.566Z,7.10
2019-01-11T04:21:06.125Z,7.50
2019-01-11T04:23:35.628Z,8.50
2019-01-11T04:26:24.252Z,7.60
2019-01-11T04:28:53.757Z,6.67
2019-01-11T04:31:23.235Z,8.60
2019-01-11T04:33:52.815Z,6.80
2019-01-11T04:36:22.287Z,7.65
2019-01-11T04:38:51.791Z,7.10
2019-01-11T04:41:21.360Z,8.07
2019-01-11T04:43:50.866Z,7.70
2019-01-11T04:46:20.353Z,7.97
2019-01-11T04:48:49.843Z,8.67
2019-01-11T04:51:19.410Z,6.87
2019-01-11T04:56:28.928Z,8.33
2019-01-11T04:58:58.463Z,6.72
2019-01-11T05:01:27.972Z,8.10
2019-01-11T05:04:09.143Z,7.47
2019-01-11T05:06:38.657Z,8.13
2019-01-11T05:09:08.142Z,8.40
2019-01-11T05:11:37.658Z,7.75
2019-01-11T05:14:07.182Z,7.80
2019-01-11T05:16:39.547Z,9.10
2019-01-11T05:19:16.861Z,6.90
2019-01-11T05:21:46.445Z,6.30
2019-01-11T05:24:15.969Z,8.07
2019-01-11T05:26:45.437Z,7.53
2019-01-11T05:29:16.564Z,8.15
2019-01-11T05:31:47.815Z,7.60
2019-01-11T05:34:17.314Z,6.00
2019-01-11T05:36:46.856Z,7.00
2019-01-11T05:44:36.790Z,7.53
2019-01-11T05:47:25.772Z,6.40
2019-01-11T05:49:56.040Z,6.72
2019-01-11T05:52:25.928Z,6.33
2019-01-11T05:54:56.011Z,7.75
2019-01-11T05:57:25.969Z,7.22
2019-01-11T05:59:56.526Z,6.15
2019-01-11T06:02:45.107Z,7.27
2019-01-11T06:05:14.599Z,7.40
2019-01-11T06:07:49.716Z,7.83
2019-01-11T06:10:19.222Z,6.00
2019-01-11T06:12:48.725Z,8.53
2019-01-11T06:15:18.219Z,7.43
2019-01-11T06:17:47.729Z,8.40
2019-01-11T06:20:38.086Z,7.77
2019-01-11T06:23:07.663Z,8.57
2019-01-11T06:25:37.133Z,7.67
2019-01-11T06:28:06.623Z,6.50
2019-01-11T06:30:36.115Z,6.60
2019-01-11T06:33:05.716Z,8.63
2019-01-11T06:35:35.867Z,7.77
2019-01-11T06:38:05.492Z,9.57
2019-01-11T06:40:35.065Z,5.92
2019-01-11T06:43:04.695Z,6.87
2019-01-11T06:45:34.187Z,6.85
2019-01-11T06:51:18.541Z,10.43
2019-01-11T06:53:48.110Z,8.13
2019-01-11T06:59:10.154Z,9.50
2019-01-11T07:01:39.805Z,7.00
2019-01-11T07:04:09.296Z,7.45
2019-01-11T07:06:38.869Z,7.50
2019-01-11T07:12:15.927Z,7.97
2019-01-11T07:14:57.162Z,7.70
2019-01-11T07:17:26.662Z,7.50
2019-01-11T07:19:56.210Z,8.60
2019-01-11T07:22:38.196Z,6.77
2019-01-11T07:25:08.138Z,8.45
2019-01-11T07:30:56.356Z,9.48
2019-01-11T07:33:25.862Z,8.20
2019-01-11T07:38:45.679Z,8.60
2019-01-11T07:41:15.229Z,6.97
2019-01-11T07:43:44.762Z,8.83
2019-01-11T07:46:14.240Z,10.53
2019-01-11T07:48:49.705Z,9.90
2019-01-11T07:51:38.435Z,8.97
2019-01-11T07:54:08.031Z,6.57
2019-01-11T07:56:37.521Z,8.80
2019-01-11T07:59:07.104Z,10.43
2019-01-11T08:04:45.946Z,10.07
2019-01-11T08:07:15.456Z,8.23
2019-01-11T08:12:40.613Z,10.00
2019-01-11T08:15:10.287Z,10.47
2019-01-11T08:17:39.816Z,11.03
2019-01-11T08:20:09.900Z,10.47
2019-01-11T08:22:58.509Z,9.23
2019-01-11T08:25:28.045Z,8.97
2019-01-11T08:27:57.564Z,11.30
2019-01-11T08:33:18.620Z,10.80
2019-01-11T08:36:06.071Z,9.88
2019-01-11T08:38:35.588Z,10.07
2019-01-11T08:41:05.056Z,9.90
2019-01-11T08:43:34.559Z,8.73
2019-01-11T08:46:04.102Z,9.20
2019-01-11T08:48:33.604Z,12.30
2019-01-11T08:51:22.443Z,12.80
2019-01-11T08:53:51.943Z,11.57
2019-01-11T08:56:21.424Z,10.40
2019-01-11T08:58:50.945Z,10.27
2019-01-11T09:01:20.439Z,11.50
2019-01-11T09:03:49.957Z,9.83
2019-01-11T09:09:28.752Z,10.53
2019-01-11T09:11:58.252Z,8.80
2019-01-11T09:14:46.825Z,9.90
2019-01-11T09:23:12.721Z,9.40
2019-01-11T09:25:42.231Z,10.40
2019-01-11T09:28:11.708Z,11.13
2019-01-11T09:30:41.373Z,10.13
2019-01-11T09:33:10.858Z,12.53
2019-01-11T09:35:40.460Z,10.97
2019-01-11T09:38:10.065Z,10.20
2019-01-11T09:40:39.530Z,10.27
2019-01-11T09:43:09.004Z,8.60
2019-01-11T09:45:38.595Z,10.00
2019-01-11T09:48:08.142Z,9.20
2019-01-11T09:50:37.648Z,9.33
2019-01-11T09:53:07.124Z,11.73
2019-01-11T09:58:31.306Z,9.00
2019-01-11T10:03:55.259Z,10.90
2019-01-11T10:09:06.759Z,9.77
2019-01-11T10:11:36.274Z,9.07
2019-01-11T10:14:05.855Z,7.87
2019-01-11T10:16:35.330Z,9.50
2019-01-11T10:19:04.913Z,9.00
2019-01-11T10:21:34.396Z,10.70
2019-01-11T10:24:04.087Z,9.80
2019-01-11T10:26:33.561Z,9.53
2019-01-11T10:29:03.138Z,8.90
2019-01-11T10:31:32.648Z,12.70
2019-01-11T10:34:02.137Z,9.00
2019-01-11T10:36:31.642Z,8.30
2019-01-11T10:39:01.109Z,11.22
2019-01-11T10:41:32.256Z,10.90
2019-01-11T10:47:03.850Z,12.93
2019-01-11T10:49:33.348Z,8.03
2019-01-11T10:52:02.973Z,8.03
2019-01-11T10:54:51.517Z,9.80
2019-01-11T10:57:20.989Z,9.50
2019-01-11T10:59:50.508Z,8.17
2019-01-11T11:02:19.987Z,10.20
2019-01-11T11:04:49.562Z,9.53
2019-01-11T11:07:19.072Z,9.37
2019-01-11T11:09:48.571Z,8.20
2019-01-11T11:12:29.750Z,8.50
2019-01-11T11:17:40.292Z,7.30
2019-01-11T11:20:12.170Z,8.93
2019-01-11T11:22:41.703Z,7.77
2019-01-11T11:25:13.137Z,8.40
2019-01-11T11:27:42.606Z,7.80
2019-01-11T11:30:13.408Z,7.92
2019-01-11T11:33:01.944Z,7.70
2019-01-11T11:35:31.911Z,6.67
2019-01-11T11:38:01.538Z,6.90
2019-01-11T11:40:31.877Z,7.60
2019-01-11T11:45:43.093Z,7.97
2019-01-11T11:48:12.566Z,8.50
2019-01-11T11:50:42.064Z,8.20
2019-01-11T11:53:11.545Z,6.87
2019-01-11T11:55:41.142Z,9.40
2019-01-11T11:58:10.634Z,8.00
2019-01-11T12:00:40.138Z,8.53
2019-01-11T12:03:09.624Z,7.43
2019-01-11T12:05:39.139Z,8.87
2019-01-11T12:08:08.634Z,9.70
2019-01-11T12:10:38.127Z,7.53
2019-01-11T12:13:07.639Z,9.10
2019-01-11T12:15:37.144Z,7.07
2019-01-11T12:18:06.651Z,7.63
2019-01-11T12:20:36.278Z,7.70
2019-01-11T12:23:05.782Z,6.63
2019-01-11T12:25:35.282Z,9.00
2019-01-11T12:28:04.885Z,7.57
2019-01-11T12:30:34.358Z,8.07
2019-01-11T12:33:22.971Z,7.20
2019-01-11T12:35:52.544Z,7.30
2019-01-11T12:38:22.066Z,7.13
2019-01-11T12:40:51.543Z,8.10
2019-01-11T12:43:21.057Z,7.50
2019-01-11T12:45:50.543Z,6.40
2019-01-11T12:48:20.062Z,6.60
2019-01-11T12:50:49.625Z,5.30
2019-01-11T12:53:19.126Z,6.30
2019-01-11T12:55:48.626Z,6.47
2019-01-11T12:58:18.119Z,5.17
2019-01-11T13:01:06.856Z,5.53
2019-01-11T13:03:36.364Z,6.60
2019-01-11T13:06:05.945Z,4.90
2019-01-11T13:08:35.477Z,6.67
2019-01-11T13:11:05.103Z,3.87
2019-01-11T13:13:34.799Z,4.93
2019-01-11T13:16:04.516Z,5.20
2019-01-11T13:18:34.193Z,6.90
2019-01-11T13:21:03.756Z,5.83
2019-01-11T13:23:33.420Z,5.07
2019-01-11T13:26:03.051Z,3.30
2019-01-11T13:28:32.564Z,3.70
2019-01-11T13:34:04.870Z,4.07
2019-01-11T13:36:46.057Z,4.80
2019-01-11T13:39:27.837Z,3.10
2019-01-11T13:41:57.332Z,4.87
2019-01-11T13:44:26.848Z,4.50
2019-01-11T13:46:56.494Z,4.67
2019-01-11T13:49:26.049Z,5.20
2019-01-11T13:51:55.533Z,4.92
2019-01-11T13:54:44.967Z,3.62
2019-01-11T13:57:15.044Z,3.45
2019-01-11T13:59:45.198Z,2.35
2019-01-11T14:02:15.259Z,2.50
2019-01-11T14:04:45.277Z,2.62
2019-01-11T14:07:15.318Z,2.60
2019-01-11T14:09:45.140Z,1.42
2019-01-11T14:12:15.207Z,1.90
2019-01-11T14:14:45.034Z,1.70
2019-01-11T14:17:15.182Z,1.35
2019-01-11T14:19:45.051Z,2.08
2019-01-11T14:22:15.150Z,1.98
2019-01-11T14:24:45.171Z,2.05
2019-01-11T14:27:15.273Z,2.27
2019-01-11T14:29:45.339Z,2.45
2019-01-11T14:35:16.997Z,1.93
2019-01-11T14:37:46.649Z,2.70
2019-01-11T14:40:16.424Z,2.37
2019-01-11T14:42:47.623Z,2.20
2019-01-11T14:45:36.376Z,2.27
2019-01-11T14:48:06.016Z,2.57
2019-01-11T14:53:37.820Z,2.10
2019-01-11T14:56:07.515Z,2.13
2019-01-11T14:58:37.086Z,1.93
2019-01-11T15:01:06.689Z,1.73
2019-01-11T15:03:36.261Z,2.27
2019-01-11T15:06:06.093Z,1.87
2019-01-11T15:08:37.065Z,2.00
2019-01-11T15:11:26.093Z,1.70
2019-01-11T15:13:55.609Z,2.23
2019-01-11T15:16:25.324Z,2.12
2019-01-11T15:18:56.492Z,2.10
2019-01-11T15:21:26.069Z,1.87
2019-01-11T15:23:55.615Z,1.50
2019-01-11T15:26:25.101Z,2.93
2019-01-11T15:28:54.617Z,1.93
2019-01-11T15:31:24.088Z,2.65
2019-01-11T15:33:53.695Z,2.12
2019-01-11T15:36:44.156Z,2.40
2019-01-11T15:39:13.723Z,2.40
2019-01-11T15:41:43.198Z,1.90
2019-01-11T15:44:12.703Z,1.70
2019-01-11T15:46:42.183Z,1.87
2019-01-11T15:49:11.686Z,1.70
2019-01-11T15:51:41.156Z,1.60
2019-01-11T15:54:10.666Z,2.20
2019-01-11T15:56:40.193Z,1.50
2019-01-11T15:59:09.712Z,1.77
2019-01-11T16:01:39.228Z,1.80
2019-01-11T16:04:09.116Z,1.40
2019-01-11T16:06:59.026Z,1.60
2019-01-11T16:10:08.765Z,1.00
2019-01-11T16:13:03.320Z,1.03
2019-01-11T16:16:11.374Z,1.30
2019-01-11T16:18:40.890Z,1.43
2019-01-11T16:21:10.390Z,1.40
2019-01-11T16:26:34.041Z,1.47
2019-01-11T16:29:03.547Z,1.90
2019-01-11T16:31:33.093Z,1.83
2019-01-11T16:34:02.611Z,1.43
2019-01-11T16:36:32.140Z,1.63
2019-01-11T16:39:03.507Z,2.07
2019-01-11T16:41:34.618Z,1.67
2019-01-11T16:44:04.211Z,1.20
2019-01-11T16:46:33.714Z,1.63
2019-01-11T16:49:04.913Z,2.30
2019-01-11T16:51:34.396Z,3.33
2019-01-11T16:54:23.145Z,2.15
2019-01-11T16:56:52.619Z,1.60
2019-01-11T16:59:22.107Z,2.80
2019-01-11T17:01:51.596Z,1.50
2019-01-11T17:04:21.108Z,1.30
2019-01-11T17:06:50.583Z,1.50
2019-01-11T17:09:20.084Z,1.40
2019-01-11T17:11:49.543Z,1.33
2019-01-11T17:14:19.060Z,1.50
2019-01-11T17:16:48.534Z,1.70
2019-01-11T17:19:18.028Z,1.40
2019-01-11T17:21:47.508Z,1.70
2019-01-11T17:24:17.091Z,2.17
2019-01-11T17:26:46.863Z,1.52
2019-01-11T17:29:17.490Z,1.65
2019-01-11T17:32:07.295Z,2.07
2019-01-11T17:34:38.646Z,1.77
2019-01-11T17:37:08.132Z,1.33
2019-01-11T17:39:37.994Z,2.03
2019-01-11T17:42:07.514Z,1.90
2019-01-11T17:44:37.091Z,3.00
2019-01-11T17:47:06.642Z,2.13
2019-01-11T17:49:36.571Z,2.80
2019-01-11T17:52:06.075Z,4.10
2019-01-11T17:54:35.647Z,2.80
2019-01-11T17:57:05.194Z,2.07
2019-01-11T17:59:34.719Z,3.20
2019-01-11T18:02:04.343Z,2.40
2019-01-11T18:04:34.016Z,1.80
2019-01-11T18:07:03.853Z,2.70
2019-01-11T18:09:33.352Z,2.40
2019-01-11T18:12:02.919Z,2.30
2019-01-11T18:14:32.493Z,3.07
2019-01-11T18:17:02.327Z,2.37
2019-01-11T18:19:31.924Z,2.70
2019-01-11T18:22:01.487Z,2.53
2019-01-11T18:24:31.314Z,2.62
2019-01-11T18:27:19.905Z,3.83
2019-01-11T18:29:49.476Z,4.33
2019-01-11T18:32:42.752Z,2.53
2019-01-11T18:35:12.844Z,1.47
2019-01-11T18:38:04.900Z,1.98
2019-01-11T18:40:36.836Z,3.30
2019-01-11T18:43:06.408Z,3.70
2019-01-11T18:45:35.926Z,3.13
2019-01-11T18:48:05.621Z,2.83
2019-01-11T18:50:35.233Z,3.90
2019-01-11T18:53:04.852Z,5.87
2019-01-11T18:55:34.317Z,2.87
2019-01-11T18:58:16.181Z,2.65
2019-01-11T19:00:45.721Z,3.08
2019-01-11T19:03:15.223Z,2.87
2019-01-11T19:05:44.747Z,2.45
2019-01-11T19:08:14.500Z,2.97
2019-01-11T19:10:44.345Z,3.15
2019-01-11T19:13:14.092Z,3.23
2019-01-11T19:16:03.080Z,2.70
2019-01-11T19:18:32.728Z,2.80
2019-01-11T19:21:15.122Z,2.87
2019-01-11T19:24:05.553Z,4.07
2019-01-11T19:26:35.292Z,2.50
2019-01-11T19:32:25.540Z,3.90
2019-01-11T19:34:55.101Z,3.02
2019-01-11T19:37:24.850Z,3.40
2019-01-11T19:39:54.528Z,3.03
2019-01-11T19:42:43.609Z,3.33
2019-01-11T19:45:13.489Z,3.67
2019-01-11T19:47:43.306Z,2.62
2019-01-11T19:50:16.931Z,3.17
2019-01-11T19:53:27.744Z,5.07
2019-01-11T19:56:03.879Z,2.77
2019-01-11T19:58:33.742Z,2.57
2019-01-11T20:01:15.494Z,3.90
2019-01-11T20:03:45.123Z,3.90
2019-01-11T20:06:15.005Z,4.00
2019-01-11T20:08:44.528Z,2.60
2019-01-11T20:11:14.173Z,2.95
2019-01-11T20:13:43.758Z,4.50
2019-01-11T20:16:13.376Z,3.70
2019-01-11T20:18:42.976Z,3.15
2019-01-11T20:21:12.652Z,2.70
2019-01-11T20:23:42.412Z,4.30
2019-01-11T20:26:12.206Z,5.37
2019-01-11T20:29:01.099Z,3.50
2019-01-11T20:31:30.879Z,3.17
2019-01-11T20:34:00.585Z,3.37
2019-01-11T20:36:59.138Z,3.63
2019-01-11T20:39:28.790Z,3.73
2019-01-11T20:41:58.455Z,3.90
2019-01-11T20:44:28.288Z,5.12
2019-01-11T20:46:58.129Z,3.87
2019-01-11T20:49:27.797Z,4.50
2019-01-11T20:51:57.514Z,3.17
2019-01-11T20:54:27.168Z,2.90
2019-01-11T20:56:56.764Z,3.27
2019-01-11T20:59:26.230Z,3.43
2019-01-11T21:01:55.840Z,2.90
2019-01-11T21:04:25.339Z,3.13
2019-01-11T21:06:55.090Z,3.83
2019-01-11T21:09:25.076Z,3.80
2019-01-11T21:11:55.219Z,3.25
2019-01-11T21:14:25.393Z,3.58
2019-01-11T21:16:55.230Z,3.85
2019-01-11T21:19:25.280Z,4.95
2019-01-11T21:21:55.280Z,4.90
2019-01-11T21:24:25.263Z,5.30
2019-01-11T21:26:55.314Z,4.58
2019-01-11T21:29:25.406Z,2.90
2019-01-11T21:31:55.466Z,4.72
2019-01-11T21:34:25.301Z,4.17
2019-01-11T21:36:55.381Z,3.40
2019-01-11T21:39:25.453Z,3.15
2019-01-11T21:41:55.712Z,5.00
2019-01-11T21:44:25.595Z,3.40
2019-01-11T21:46:55.778Z,5.22
2019-01-11T21:52:26.677Z,3.57
2019-01-11T21:54:56.275Z,3.45
2019-01-11T21:57:26.001Z,5.43
2019-01-11T21:59:55.665Z,4.20
2019-01-11T22:02:25.619Z,3.25
2019-01-11T22:04:55.538Z,3.45
2019-01-11T22:07:25.530Z,3.30
2019-01-11T22:09:55.969Z,2.90
2019-01-11T22:15:40.992Z,4.23
2019-01-11T22:18:10.755Z,3.57
2019-01-11T22:20:40.454Z,3.80
2019-01-11T22:23:10.280Z,2.80
2019-01-11T22:25:39.937Z,3.23
2019-01-11T22:28:09.673Z,4.70
2019-01-11T22:30:39.485Z,4.87
2019-01-11T22:33:08.971Z,2.30
2019-01-11T22:35:38.475Z,3.97
2019-01-11T22:38:27.424Z,3.90
2019-01-11T22:40:57.206Z,6.50
2019-01-11T22:43:27.207Z,3.60
2019-01-11T22:45:57.106Z,3.63
2019-01-11T22:48:27.195Z,5.47
2019-01-11T22:50:56.827Z,4.93
2019-01-11T22:53:26.478Z,3.47
2019-01-11T22:55:56.033Z,4.20
2019-01-11T22:58:25.895Z,3.85
2019-01-11T23:01:20.490Z,3.83
2019-01-11T23:04:10.906Z,3.77
2019-01-11T23:07:05.079Z,2.90
2019-01-11T23:09:56.652Z,3.67
2019-01-11T23:12:52.345Z,5.27
2019-01-11T23:15:42.946Z,4.30
2019-01-11T23:18:32.425Z,4.20
2019-01-11T23:21:04.558Z,3.70
2019-01-11T23:23:34.065Z,4.70
2019-01-11T23:26:03.590Z,4.07
2019-01-11T23:28:33.202Z,4.67
2019-01-11T23:37:07.087Z,4.75
2019-01-11T23:39:36.593Z,4.65
2019-01-11T23:42:06.097Z,6.63
2019-01-11T23:44:35.588Z,3.30
2019-01-11T23:47:05.292Z,3.77
2019-01-11T23:49:34.769Z,4.62
2019-01-11T23:52:04.324Z,3.60
2019-01-11T23:54:33.878Z,4.22
2019-01-11T23:57:03.468Z,5.20
2019-01-11T23:59:32.998Z,4.10
